KCEZ/CEZ METAR and TAF weather

Enter ICAO airport designator
Station Type Date Time Source
KCEZ METAR 2022/08/13 12:53 UTC NOAA

KCEZ 131253Z AUTO 07004KT 10SM CLR 13/09 A3031 RMK AO2 SLP185 T01330094


Station Type Date Time Source
KCEZ Decoded METAR 2022/08/13 12:53 UTC NOAA

CORTEZ MONTEZUMA COUNTY AIRPORT , CO, United States (KCEZ) 37-18N 108-38W 1797M
Aug 13, 2022 - 08:53 AM EDT / 2022.08.13 1253 UTC
Wind: from the ENE (070 degrees) at 5 MPH (4 KT):0
Visibility: 10 mile(s):0
Sky conditions: clear
Temperature: 55.9 F (13.3 C)
Dew Point: 48.9 F (9.4 C)
Relative Humidity: 77%
Pressure (altimeter): 30.31 in. Hg (1026 hPa)
ob: KCEZ 131253Z AUTO 07004KT 10SM CLR 13/09 A3031 RMK AO2 SLP185 T01330094
cycle: 13

Station Type Date Time Source
KCEZ TAF UTC NOAA

Error!

Example: see airport list